sensor_id;sensor_type;location;lat;lon;timestamp;pressure;altitude;pressure_sealevel;temperature;humidity
49423;BME280;36998;51.974;20.150;2022-12-24T00:02:21;99012.19;;;11.13;64.86
49423;BME280;36998;51.974;20.150;2022-12-24T00:04:47;99010.13;;;11.15;64.93
49423;BME280;36998;51.974;20.150;2022-12-24T00:07:13;99003.06;;;11.14;64.60
49423;BME280;36998;51.974;20.150;2022-12-24T00:09:38;99005.31;;;11.10;64.58
49423;BME280;36998;51.974;20.150;2022-12-24T00:12:04;99004.88;;;11.07;64.73
49423;BME280;36998;51.974;20.150;2022-12-24T00:14:30;99011.34;;;11.06;64.61
49423;BME280;36998;51.974;20.150;2022-12-24T00:16:56;99021.28;;;11.05;64.87
49423;BME280;36998;51.974;20.150;2022-12-24T00:19:22;99007.38;;;11.08;64.85
49423;BME280;36998;51.974;20.150;2022-12-24T00:21:49;99024.22;;;11.10;64.43
49423;BME280;36998;51.974;20.150;2022-12-24T00:24:15;99017.56;;;11.06;64.61
49423;BME280;36998;51.974;20.150;2022-12-24T00:26:41;99014.03;;;11.06;64.77
49423;BME280;36998;51.974;20.150;2022-12-24T00:29:08;99015.25;;;11.03;64.56
49423;BME280;36998;51.974;20.150;2022-12-24T00:31:35;99021.50;;;11.04;64.46
49423;BME280;36998;51.974;20.150;2022-12-24T00:34:01;99020.28;;;11.06;64.42
49423;BME280;36998;51.974;20.150;2022-12-24T00:36:26;99027.16;;;11.09;64.31
49423;BME280;36998;51.974;20.150;2022-12-24T00:38:53;99024.88;;;11.12;64.36
49423;BME280;36998;51.974;20.150;2022-12-24T00:41:19;99027.19;;;11.15;64.07
49423;BME280;36998;51.974;20.150;2022-12-24T00:44:01;99020.53;;;11.18;64.06
49423;BME280;36998;51.974;20.150;2022-12-24T00:46:29;99021.41;;;11.18;64.26
49423;BME280;36998;51.974;20.150;2022-12-24T00:48:55;99020.13;;;11.21;64.08
49423;BME280;36998;51.974;20.150;2022-12-24T00:51:22;99018.22;;;11.15;64.06
49423;BME280;36998;51.974;20.150;2022-12-24T00:53:49;99015.53;;;11.15;64.40
49423;BME280;36998;51.974;20.150;2022-12-24T00:56:15;99020.09;;;11.14;64.26
49423;BME280;36998;51.974;20.150;2022-12-24T00:58:41;99027.19;;;11.15;64.27
49423;BME280;36998;51.974;20.150;2022-12-24T01:01:07;99024.88;;;11.12;64.25
49423;BME280;36998;51.974;20.150;2022-12-24T01:03:33;99018.22;;;11.15;64.34
49423;BME280;36998;51.974;20.150;2022-12-24T01:06:11;99018.00;;;11.10;64.17
49423;BME280;36998;51.974;20.150;2022-12-24T01:08:37;99014.47;;;11.09;64.48
49423;BME280;36998;51.974;20.150;2022-12-24T01:11:04;99011.72;;;11.02;64.30
49423;BME280;36998;51.974;20.150;2022-12-24T01:13:32;99014.44;;;11.02;64.52
49423;BME280;36998;51.974;20.150;2022-12-24T01:15:58;99009.63;;;11.05;64.48
49423;BME280;36998;51.974;20.150;2022-12-24T01:18:24;99010.03;;;11.01;64.22
49423;BME280;36998;51.974;20.150;2022-12-24T01:20:59;99012.72;;;11.01;64.39
49423;BME280;36998;51.974;20.150;2022-12-24T01:23:26;99013.13;;;10.98;64.38
49423;BME280;36998;51.974;20.150;2022-12-24T01:25:52;99009.41;;;10.99;64.13
49423;BME280;36998;51.974;20.150;2022-12-24T01:28:19;99010.19;;;10.93;64.38
49423;BME280;36998;51.974;20.150;2022-12-24T01:30:44;99014.34;;;10.89;64.57
49423;BME280;36998;51.974;20.150;2022-12-24T01:33:12;99022.44;;;10.89;64.61
49423;BME280;36998;51.974;20.150;2022-12-24T01:35:42;99013.47;;;10.89;64.79
49423;BME280;36998;51.974;20.150;2022-12-24T01:38:08;99011.63;;;10.89;64.41
49423;BME280;36998;51.974;20.150;2022-12-24T01:40:37;99008.06;;;10.89;64.66
49423;BME280;36998;51.974;20.150;2022-12-24T01:43:22;99008.28;;;10.87;64.43
49423;BME280;36998;51.974;20.150;2022-12-24T01:45:59;99005.91;;;10.77;64.75
49423;BME280;36998;51.974;20.150;2022-12-24T01:48:46;99000.84;;;10.68;64.77
49423;BME280;36998;51.974;20.150;2022-12-24T01:51:22;99003.75;;;10.66;64.49
49423;BME280;36998;51.974;20.150;2022-12-24T01:53:53;99000.41;;;10.64;64.95
49423;BME280;36998;51.974;20.150;2022-12-24T01:56:22;98990.44;;;10.65;64.89
49423;BME280;36998;51.974;20.150;2022-12-24T01:58:54;98994.75;;;10.59;64.80
49423;BME280;36998;51.974;20.150;2022-12-24T02:01:21;98999.72;;;10.55;64.78
49423;BME280;36998;51.974;20.150;2022-12-24T02:03:47;98993.41;;;10.48;64.86
49423;BME280;36998;51.974;20.150;2022-12-24T02:06:14;98995.94;;;10.50;64.96
49423;BME280;36998;51.974;20.150;2022-12-24T02:08:41;98991.00;;;10.53;64.87
49423;BME280;36998;51.974;20.150;2022-12-24T02:11:20;98986.41;;;10.54;64.61
49423;BME280;36998;51.974;20.150;2022-12-24T02:13:57;98997.22;;;10.54;64.73
49423;BME280;36998;51.974;20.150;2022-12-24T02:30:07;98995.94;;;10.50;65.12
49423;BME280;36998;51.974;20.150;2022-12-24T02:32:52;98991.75;;;10.47;65.43
49423;BME280;36998;51.974;20.150;2022-12-24T02:37:57;98989.63;;;10.43;65.09
49423;BME280;36998;51.974;20.150;2022-12-24T02:40:27;98986.69;;;10.38;65.55
49423;BME280;36998;51.974;20.150;2022-12-24T02:43:00;98991.63;;;10.34;65.15
49423;BME280;36998;51.974;20.150;2022-12-24T02:45:30;98998.31;;;10.38;65.31
49423;BME280;36998;51.974;20.150;2022-12-24T02:47:56;98996.06;;;10.42;65.30
49423;BME280;36998;51.974;20.150;2022-12-24T02:50:24;98999.41;;;10.44;65.39
49423;BME280;36998;51.974;20.150;2022-12-24T02:52:50;99000.03;;;10.46;65.27
49423;BME280;36998;51.974;20.150;2022-12-24T03:07:22;98995.94;;;10.50;65.20
49423;BME280;36998;51.974;20.150;2022-12-24T03:13:09;98999.41;;;10.44;65.24
49423;BME280;36998;51.974;20.150;2022-12-24T03:15:38;98989.19;;;10.39;65.13
49423;BME280;36998;51.974;20.150;2022-12-24T03:18:04;98995.34;;;10.33;65.22
49423;BME280;36998;51.974;20.150;2022-12-24T03:20:35;99002.38;;;10.27;65.14
49423;BME280;36998;51.974;20.150;2022-12-24T03:23:02;98998.34;;;10.23;64.96
49423;BME280;36998;51.974;20.150;2022-12-24T03:25:27;99002.91;;;10.23;65.14
49423;BME280;36998;51.974;20.150;2022-12-24T03:27:55;99007.03;;;10.19;65.08
49423;BME280;36998;51.974;20.150;2022-12-24T03:30:21;99001.63;;;10.19;65.15
49423;BME280;36998;51.974;20.150;2022-12-24T03:32:47;99003.28;;;10.20;64.97
49423;BME280;36998;51.974;20.150;2022-12-24T03:35:12;99001.81;;;10.17;65.08
49423;BME280;36998;51.974;20.150;2022-12-24T03:37:39;98997.66;;;10.15;65.30
49423;BME280;36998;51.974;20.150;2022-12-24T03:40:05;98996.81;;;10.14;65.08
49423;BME280;36998;51.974;20.150;2022-12-24T03:42:31;98993.91;;;10.16;65.13
49423;BME280;36998;51.974;20.150;2022-12-24T03:44:57;98988.06;;;10.12;65.20
49423;BME280;36998;51.974;20.150;2022-12-24T03:47:22;99001.94;;;10.09;65.65
49423;BME280;36998;51.974;20.150;2022-12-24T03:49:48;99001.94;;;10.09;65.47
49423;BME280;36998;51.974;20.150;2022-12-24T03:52:14;99005.00;;;10.06;65.47
49423;BME280;36998;51.974;20.150;2022-12-24T03:54:39;99002.31;;;10.06;65.15
49423;BME280;36998;51.974;20.150;2022-12-24T03:57:05;99008.75;;;10.05;65.49
49423;BME280;36998;51.974;20.150;2022-12-24T03:59:30;99008.09;;;10.03;65.32
49423;BME280;36998;51.974;20.150;2022-12-24T04:01:56;99007.47;;;10.01;65.55
49423;BME280;36998;51.974;20.150;2022-12-24T04:04:23;99004.31;;;9.97;65.51
49423;BME280;36998;51.974;20.150;2022-12-24T04:06:49;99014.44;;;9.95;65.76
49423;BME280;36998;51.974;20.150;2022-12-24T04:09:15;99010.16;;;10.01;65.37
49423;BME280;36998;51.974;20.150;2022-12-24T04:11:40;99010.78;;;10.03;65.19
49423;BME280;36998;51.974;20.150;2022-12-24T04:14:07;99008.28;;;10.01;65.16
49423;BME280;36998;51.974;20.150;2022-12-24T04:16:32;98996.84;;;9.99;65.63
49423;BME280;36998;51.974;20.150;2022-12-24T04:18:58;99001.41;;;9.99;65.71
49423;BME280;36998;51.974;20.150;2022-12-24T04:21:24;98996.84;;;9.99;65.39
49423;BME280;36998;51.974;20.150;2022-12-24T04:23:50;99004.94;;;9.99;65.34
49423;BME280;36998;51.974;20.150;2022-12-24T04:26:15;98997.31;;;10.03;65.56
49423;BME280;36998;51.974;20.150;2022-12-24T04:28:41;98992.94;;;10.02;65.28
49423;BME280;36998;51.974;20.150;2022-12-24T04:31:13;98993.13;;;10.00;65.36
49423;BME280;36998;51.974;20.150;2022-12-24T04:33:39;98991.22;;;9.94;65.37
49423;BME280;36998;51.974;20.150;2022-12-24T04:36:05;98997.16;;;9.90;65.54
49423;BME280;36998;51.974;20.150;2022-12-24T04:38:33;98994.66;;;9.88;65.65
49423;BME280;36998;51.974;20.150;2022-12-24T04:41:04;98992.34;;;9.85;65.47
49423;BME280;36998;51.974;20.150;2022-12-24T04:43:30;98992.66;;;9.75;65.68
49423;BME280;36998;51.974;20.150;2022-12-24T04:46:03;98990.78;;;9.76;66.03
49423;BME280;36998;51.974;20.150;2022-12-24T04:48:29;98992.00;;;9.73;65.69
49423;BME280;36998;51.974;20.150;2022-12-24T04:50:55;98992.38;;;9.70;65.93
49423;BME280;36998;51.974;20.150;2022-12-24T04:53:20;98989.41;;;9.65;65.78
49423;BME280;36998;51.974;20.150;2022-12-24T04:55:46;98995.66;;;9.66;65.89
49423;BME280;36998;51.974;20.150;2022-12-24T04:58:12;98997.31;;;9.67;66.14
49423;BME280;36998;51.974;20.150;2022-12-24T05:00:38;99005.41;;;9.67;66.06
49423;BME280;36998;51.974;20.150;2022-12-24T05:03:04;99007.91;;;9.68;66.08
49423;BME280;36998;51.974;20.150;2022-12-24T05:05:30;99006.22;;;9.67;65.92
49423;BME280;36998;51.974;20.150;2022-12-24T05:08:04;99005.59;;;9.65;66.19
49423;BME280;36998;51.974;20.150;2022-12-24T05:10:31;99003.44;;;9.60;66.28
49423;BME280;36998;51.974;20.150;2022-12-24T05:12:56;99009.22;;;9.57;66.23
49423;BME280;36998;51.974;20.150;2022-12-24T05:15:22;99003.66;;;9.59;66.14
49423;BME280;36998;51.974;20.150;2022-12-24T05:17:48;99012.13;;;9.56;66.41
49423;BME280;36998;51.974;20.150;2022-12-24T05:20:14;99000.66;;;9.54;66.19
49423;BME280;36998;51.974;20.150;2022-12-24T05:22:40;99012.56;;;9.59;66.08
49423;BME280;36998;51.974;20.150;2022-12-24T05:25:26;99003.28;;;9.62;66.37
49423;BME280;36998;51.974;20.150;2022-12-24T05:28:14;99011.81;;;9.66;66.03
49423;BME280;36998;51.974;20.150;2022-12-24T05:30:40;99009.13;;;9.66;66.33
49423;BME280;36998;51.974;20.150;2022-12-24T05:33:05;99005.84;;;9.70;65.92
49423;BME280;36998;51.974;20.150;2022-12-24T05:35:31;99011.63;;;9.67;66.14
49423;BME280;36998;51.974;20.150;2022-12-24T05:37:57;99015.81;;;9.70;66.20
49423;BME280;36998;51.974;20.150;2022-12-24T05:40:23;99013.75;;;9.72;66.29
49423;BME280;36998;51.974;20.150;2022-12-24T05:42:49;99015.06;;;9.76;66.01
49423;BME280;36998;51.974;20.150;2022-12-24T05:45:15;99007.25;;;9.81;65.84
49423;BME280;36998;51.974;20.150;2022-12-24T05:47:41;99010.13;;;9.79;65.92
49423;BME280;36998;51.974;20.150;2022-12-24T05:50:07;99013.63;;;9.80;65.78
49423;BME280;36998;51.974;20.150;2022-12-24T05:52:33;99017.09;;;9.74;66.02
49423;BME280;36998;51.974;20.150;2022-12-24T05:54:58;99014.78;;;9.71;66.01
49423;BME280;36998;51.974;20.150;2022-12-24T05:57:24;99027.03;;;9.73;65.85
49423;BME280;36998;51.974;20.150;2022-12-24T05:59:49;99030.56;;;9.74;65.65
49423;BME280;36998;51.974;20.150;2022-12-24T06:02:15;99027.88;;;9.74;65.94
49423;BME280;36998;51.974;20.150;2022-12-24T06:04:41;99025.84;;;9.76;65.82
49423;BME280;36998;51.974;20.150;2022-12-24T06:07:06;99025.84;;;9.76;65.95
49423;BME280;36998;51.974;20.150;2022-12-24T06:09:32;99025.00;;;9.75;65.94
49423;BME280;36998;51.974;20.150;2022-12-24T06:11:58;99033.25;;;9.74;65.89
49423;BME280;36998;51.974;20.150;2022-12-24T06:14:24;99032.63;;;9.72;65.80
49423;BME280;36998;51.974;20.150;2022-12-24T06:16:50;99046.88;;;9.66;65.88
49423;BME280;36998;51.974;20.150;2022-12-24T06:19:15;99032.09;;;9.61;66.13
49423;BME280;36998;51.974;20.150;2022-12-24T06:21:41;99037.66;;;9.60;66.14
49423;BME280;36998;51.974;20.150;2022-12-24T06:24:07;99043.72;;;9.62;65.91
49423;BME280;36998;51.974;20.150;2022-12-24T06:26:33;99042.50;;;9.65;65.81
49423;BME280;36998;51.974;20.150;2022-12-24T06:28:58;99054.75;;;9.67;65.91
49423;BME280;36998;51.974;20.150;2022-12-24T06:31:24;99043.81;;;9.69;65.95
49423;BME280;36998;51.974;20.150;2022-12-24T06:33:50;99053.53;;;9.70;66.00
49423;BME280;36998;51.974;20.150;2022-12-24T06:36:22;99050.84;;;9.70;65.69
49423;BME280;36998;51.974;20.150;2022-12-24T06:38:49;99055.78;;;9.66;66.09
49423;BME280;36998;51.974;20.150;2022-12-24T06:41:15;99051.22;;;9.67;65.92
49423;BME280;36998;51.974;20.150;2022-12-24T06:43:43;99054.97;;;9.66;66.12
49423;BME280;36998;51.974;20.150;2022-12-24T06:46:10;99058.28;;;9.68;65.73
49423;BME280;36998;51.974;20.150;2022-12-24T06:48:35;99056.44;;;9.68;65.78
49423;BME280;36998;51.974;20.150;2022-12-24T06:51:02;99050.03;;;9.69;66.17
49423;BME280;36998;51.974;20.150;2022-12-24T06:53:28;99059.31;;;9.67;66.22
49423;BME280;36998;51.974;20.150;2022-12-24T06:56:05;99057.28;;;9.69;66.30
49423;BME280;36998;51.974;20.150;2022-12-24T06:58:32;99065.38;;;9.69;66.01
49423;BME280;36998;51.974;20.150;2022-12-24T07:01:10;99068.91;;;9.69;66.19
49423;BME280;36998;51.974;20.150;2022-12-24T07:03:36;99071.75;;;9.68;66.02
49423;BME280;36998;51.974;20.150;2022-12-24T07:06:03;99077.81;;;9.70;65.94
49423;BME280;36998;51.974;20.150;2022-12-24T07:08:30;99080.50;;;9.70;66.02
49423;BME280;36998;51.974;20.150;2022-12-24T07:11:00;99082.38;;;9.69;66.16
49423;BME280;36998;51.974;20.150;2022-12-24T07:13:26;99083.56;;;9.67;65.98
49423;BME280;36998;51.974;20.150;2022-12-24T07:15:58;99085.66;;;9.65;66.30
49423;BME280;36998;51.974;20.150;2022-12-24T07:18:23;99089.53;;;9.62;66.25
49423;BME280;36998;51.974;20.150;2022-12-24T07:20:49;99084.31;;;9.60;66.13
49423;BME280;36998;51.974;20.150;2022-12-24T07:23:15;99087.84;;;9.61;65.79
49423;BME280;36998;51.974;20.150;2022-12-24T07:25:43;99093.25;;;9.61;65.90
49423;BME280;36998;51.974;20.150;2022-12-24T07:28:09;99095.09;;;9.60;65.82
49423;BME280;36998;51.974;20.150;2022-12-24T07:30:35;99096.50;;;9.56;66.08
49423;BME280;36998;51.974;20.150;2022-12-24T07:33:00;99098.53;;;9.54;66.02
49423;BME280;36998;51.974;20.150;2022-12-24T07:35:26;99104.78;;;9.55;66.10
49423;BME280;36998;51.974;20.150;2022-12-24T07:37:51;99101.91;;;9.56;66.11
49423;BME280;36998;51.974;20.150;2022-12-24T07:40:17;99101.06;;;9.56;66.44
49423;BME280;36998;51.974;20.150;2022-12-24T07:42:43;99097.06;;;9.52;66.52
49423;BME280;36998;51.974;20.150;2022-12-24T07:45:09;99110.34;;;9.53;66.14
49423;BME280;36998;51.974;20.150;2022-12-24T07:47:35;99112.38;;;9.51;66.43
49423;BME280;36998;51.974;20.150;2022-12-24T07:50:01;99109.69;;;9.51;66.19
49423;BME280;36998;51.974;20.150;2022-12-24T07:52:27;99122.53;;;9.49;66.56
49423;BME280;36998;51.974;20.150;2022-12-24T07:54:53;99131.25;;;9.51;66.54
49423;BME280;36998;51.974;20.150;2022-12-24T07:57:18;99125.84;;;9.51;66.26
49423;BME280;36998;51.974;20.150;2022-12-24T07:59:44;99123.66;;;9.55;66.53
49423;BME280;36998;51.974;20.150;2022-12-24T08:02:10;99115.56;;;9.55;66.20
49423;BME280;36998;51.974;20.150;2022-12-24T08:04:36;99127.81;;;9.57;66.30
49423;BME280;36998;51.974;20.150;2022-12-24T08:07:03;99129.16;;;9.61;66.40
49423;BME280;36998;51.974;20.150;2022-12-24T08:09:31;99118.63;;;9.67;66.06
49423;BME280;36998;51.974;20.150;2022-12-24T08:11:57;99120.69;;;9.65;66.19
49423;BME280;36998;51.974;20.150;2022-12-24T08:14:22;99129.63;;;9.65;66.23
49423;BME280;36998;51.974;20.150;2022-12-24T08:16:48;99134.81;;;9.67;66.22
49423;BME280;36998;51.974;20.150;2022-12-24T08:19:15;99144.84;;;9.73;66.34
49423;BME280;36998;51.974;20.150;2022-12-24T08:21:44;99132.66;;;9.77;66.12
49423;BME280;36998;51.974;20.150;2022-12-24T08:24:10;99142.44;;;9.78;66.40
49423;BME280;36998;51.974;20.150;2022-12-24T08:26:36;99151.00;;;9.81;66.03
49423;BME280;36998;51.974;20.150;2022-12-24T08:29:03;99161.59;;;9.83;66.21
49423;BME280;36998;51.974;20.150;2022-12-24T08:31:29;99156.47;;;9.88;65.98
49423;BME280;36998;51.974;20.150;2022-12-24T08:33:54;99159.44;;;9.93;66.20
49423;BME280;36998;51.974;20.150;2022-12-24T08:36:20;99161.31;;;9.93;66.15
49423;BME280;36998;51.974;20.150;2022-12-24T08:38:46;99168.00;;;9.97;65.79
49423;BME280;36998;51.974;20.150;2022-12-24T08:41:11;99169.13;;;10.02;65.87
49423;BME280;36998;51.974;20.150;2022-12-24T08:43:37;99174.44;;;10.11;66.03
49423;BME280;36998;51.974;20.150;2022-12-24T08:46:04;99176.75;;;10.14;65.77
49423;BME280;36998;51.974;20.150;2022-12-24T08:48:31;99178.41;;;10.15;65.83
49423;BME280;36998;51.974;20.150;2022-12-24T08:50:57;99180.75;;;10.18;65.72
49423;BME280;36998;51.974;20.150;2022-12-24T08:53:23;99184.72;;;10.22;65.47
49423;BME280;36998;51.974;20.150;2022-12-24T08:55:49;99179.78;;;10.25;65.59
49423;BME280;36998;51.974;20.150;2022-12-24T08:58:14;99175.78;;;10.36;65.67
49423;BME280;36998;51.974;20.150;2022-12-24T09:00:40;99169.47;;;10.44;65.37
49423;BME280;36998;51.974;20.150;2022-12-24T09:03:05;99182.38;;;10.48;65.52
49423;BME280;36998;51.974;20.150;2022-12-24T09:05:31;99179.50;;;10.50;65.39
49423;BME280;36998;51.974;20.150;2022-12-24T09:07:57;99185.44;;;10.60;64.93
49423;BME280;36998;51.974;20.150;2022-12-24T09:10:23;99189.72;;;10.54;64.95
49423;BME280;36998;51.974;20.150;2022-12-24T09:12:49;99193.09;;;10.57;65.15
49423;BME280;36998;51.974;20.150;2022-12-24T09:15:15;99192.34;;;10.63;65.14
49423;BME280;36998;51.974;20.150;2022-12-24T09:17:42;99194.63;;;10.66;64.81
49423;BME280;36998;51.974;20.150;2022-12-24T09:20:08;99194.44;;;10.67;64.73
49423;BME280;36998;51.974;20.150;2022-12-24T09:22:36;99201.34;;;10.70;64.49
49423;BME280;36998;51.974;20.150;2022-12-24T09:25:03;99202.16;;;10.70;64.67
49423;BME280;36998;51.974;20.150;2022-12-24T09:27:30;99207.81;;;10.75;64.57
49423;BME280;36998;51.974;20.150;2022-12-24T09:29:56;99210.91;;;10.72;64.21
49423;BME280;36998;51.974;20.150;2022-12-24T09:32:21;99215.00;;;10.68;64.11
49423;BME280;36998;51.974;20.150;2022-12-24T09:34:47;99215.28;;;10.73;64.11
49423;BME280;36998;51.974;20.150;2022-12-24T09:37:13;99216.22;;;10.66;64.12
49423;BME280;36998;51.974;20.150;2022-12-24T09:39:38;99223.25;;;10.60;64.52
49423;BME280;36998;51.974;20.150;2022-12-24T09:42:15;99218.22;;;10.57;64.56
49423;BME280;36998;51.974;20.150;2022-12-24T09:44:57;99223.03;;;10.62;64.67
49423;BME280;36998;51.974;20.150;2022-12-24T09:49:51;99240.28;;;10.61;64.37
49423;BME280;36998;51.974;20.150;2022-12-24T09:52:32;99240.44;;;10.59;64.38
49423;BME280;36998;51.974;20.150;2022-12-24T09:57:46;99239.25;;;10.62;64.46
49423;BME280;36998;51.974;20.150;2022-12-24T10:00:20;99245.31;;;10.85;64.07
49423;BME280;36998;51.974;20.150;2022-12-24T10:02:46;99249.75;;;10.71;64.24
49423;BME280;36998;51.974;20.150;2022-12-24T10:05:17;99244.91;;;10.67;64.54
49423;BME280;36998;51.974;20.150;2022-12-24T10:07:53;99247.63;;;10.67;64.44
49423;BME280;36998;51.974;20.150;2022-12-24T10:13:01;99257.13;;;10.63;64.06
49423;BME280;36998;51.974;20.150;2022-12-24T10:15:35;99265.69;;;10.66;64.30
49423;BME280;36998;51.974;20.150;2022-12-24T10:21:14;99264.75;;;10.74;63.83
49423;BME280;36998;51.974;20.150;2022-12-24T10:23:51;99266.16;;;10.70;63.62
49423;BME280;36998;51.974;20.150;2022-12-24T10:26:26;99270.59;;;10.77;63.87
49423;BME280;36998;51.974;20.150;2022-12-24T10:29:02;99270.09;;;10.89;63.89
49423;BME280;36998;51.974;20.150;2022-12-24T10:31:34;99277.66;;;10.93;63.80
49423;BME280;36998;51.974;20.150;2022-12-24T10:34:05;99278.09;;;10.97;63.53
49423;BME280;36998;51.974;20.150;2022-12-24T10:36:36;99277.91;;;10.98;63.17
49423;BME280;36998;51.974;20.150;2022-12-24T10:39:02;99290.66;;;11.05;63.42
49423;BME280;36998;51.974;20.150;2022-12-24T10:41:29;99291.09;;;11.08;63.04
49423;BME280;36998;51.974;20.150;2022-12-24T10:43:56;99292.34;;;11.06;62.54
49423;BME280;36998;51.974;20.150;2022-12-24T10:46:34;99300.81;;;11.02;63.12
49423;BME280;36998;51.974;20.150;2022-12-24T10:49:03;99301.38;;;10.98;63.00
49423;BME280;36998;51.974;20.150;2022-12-24T10:51:53;99308.66;;;10.97;62.88
49423;BME280;36998;51.974;20.150;2022-12-24T10:54:22;99308.78;;;10.89;62.86
49423;BME280;36998;51.974;20.150;2022-12-24T10:56:59;99307.47;;;10.85;63.34
49423;BME280;36998;51.974;20.150;2022-12-24T10:59:35;99312.22;;;10.83;62.93
49423;BME280;36998;51.974;20.150;2022-12-24T11:02:26;99329.06;;;10.85;63.13
49423;BME280;36998;51.974;20.150;2022-12-24T11:04:56;99327.53;;;10.76;62.88
49423;BME280;36998;51.974;20.150;2022-12-24T11:07:24;99335.13;;;10.72;62.66
49423;BME280;36998;51.974;20.150;2022-12-24T11:10:03;99335.81;;;10.60;62.67
49423;BME280;36998;51.974;20.150;2022-12-24T11:12:45;99339.25;;;10.53;63.15
49423;BME280;36998;51.974;20.150;2022-12-24T11:15:18;99345.56;;;10.46;62.92
49423;BME280;36998;51.974;20.150;2022-12-24T11:18:13;99344.94;;;10.44;63.40
49423;BME280;36998;51.974;20.150;2022-12-24T11:20:40;99345.00;;;10.36;63.09
49423;BME280;36998;51.974;20.150;2022-12-24T11:23:14;99352.47;;;10.34;63.45
49423;BME280;36998;51.974;20.150;2022-12-24T11:25:46;99348.63;;;10.28;63.39
49423;BME280;36998;51.974;20.150;2022-12-24T11:28:23;99366.88;;;10.26;63.49
49423;BME280;36998;51.974;20.150;2022-12-24T11:33:21;99370.44;;;10.18;63.23
49423;BME280;36998;51.974;20.150;2022-12-24T11:35:51;99375.38;;;10.15;63.44
49423;BME280;36998;51.974;20.150;2022-12-24T11:38:20;99376.41;;;10.14;63.27
49423;BME280;36998;51.974;20.150;2022-12-24T11:40:49;99374.19;;;10.17;63.25
49423;BME280;36998;51.974;20.150;2022-12-24T11:43:21;99381.91;;;10.20;63.37
49423;BME280;36998;51.974;20.150;2022-12-24T11:45:52;99383.59;;;10.21;63.50
49423;BME280;36998;51.974;20.150;2022-12-24T11:48:33;99381.53;;;10.23;63.60
49423;BME280;36998;51.974;20.150;2022-12-24T11:51:04;99378.13;;;10.29;63.60
49423;BME280;36998;51.974;20.150;2022-12-24T11:53:49;99379.25;;;10.35;63.58
49423;BME280;36998;51.974;20.150;2022-12-24T11:58:57;99388.19;;;10.36;63.48
49423;BME280;36998;51.974;20.150;2022-12-24T12:04:32;99412.38;;;10.29;63.09
49423;BME280;36998;51.974;20.150;2022-12-24T12:07:03;99417.47;;;10.24;63.23
49423;BME280;36998;51.974;20.150;2022-12-24T12:09:37;99415.78;;;10.23;63.05
49423;BME280;36998;51.974;20.150;2022-12-24T12:12:08;99413.75;;;10.25;62.97
49423;BME280;36998;51.974;20.150;2022-12-24T12:15:03;99416.81;;;10.22;63.22
49423;BME280;36998;51.974;20.150;2022-12-24T12:17:35;99426.44;;;10.16;63.44
49423;BME280;36998;51.974;20.150;2022-12-24T12:20:11;99425.34;;;10.11;63.12
49423;BME280;36998;51.974;20.150;2022-12-24T12:25:49;99429.13;;;10.01;63.59
49423;BME280;36998;51.974;20.150;2022-12-24T12:31:22;99450.97;;;10.06;63.56
49423;BME280;36998;51.974;20.150;2022-12-24T12:34:02;99457.09;;;10.00;63.29
49423;BME280;36998;51.974;20.150;2022-12-24T12:36:32;99455.63;;;9.98;63.54
49423;BME280;36998;51.974;20.150;2022-12-24T12:39:00;99461.38;;;9.95;63.28
49423;BME280;36998;51.974;20.150;2022-12-24T12:42:06;99465.56;;;9.97;63.53
49423;BME280;36998;51.974;20.150;2022-12-24T12:44:48;99480.25;;;9.95;63.56
49423;BME280;36998;51.974;20.150;2022-12-24T12:55:50;99489.66;;;9.99;63.63
49423;BME280;36998;51.974;20.150;2022-12-24T13:01:11;99502.59;;;10.03;63.35
49423;BME280;36998;51.974;20.150;2022-12-24T13:03:48;99504.31;;;10.04;63.35
49423;BME280;36998;51.974;20.150;2022-12-24T13:14:47;99524.25;;;9.95;63.32
49423;BME280;36998;51.974;20.150;2022-12-24T13:20:28;99531.78;;;10.00;63.29
49423;BME280;36998;51.974;20.150;2022-12-24T13:25:38;99539.72;;;10.01;63.29
49423;BME280;36998;51.974;20.150;2022-12-24T13:31:21;99548.47;;;10.03;63.54
49423;BME280;36998;51.974;20.150;2022-12-24T13:36:14;99537.03;;;10.01;63.70
49423;BME280;36998;51.974;20.150;2022-12-24T13:54:30;99582.53;;;10.04;63.19
49423;BME280;36998;51.974;20.150;2022-12-24T13:56:58;99583.66;;;10.10;63.18
49423;BME280;36998;51.974;20.150;2022-12-24T13:59:35;99588.56;;;10.15;63.46
49423;BME280;36998;51.974;20.150;2022-12-24T14:02:02;99592.78;;;10.09;63.48
49423;BME280;36998;51.974;20.150;2022-12-24T14:04:32;99600.41;;;10.05;63.20
49423;BME280;36998;51.974;20.150;2022-12-24T14:07:01;99602.25;;;10.05;63.15
49423;BME280;36998;51.974;20.150;2022-12-24T14:09:29;99612.84;;;10.06;63.05
49423;BME280;36998;51.974;20.150;2022-12-24T14:14:30;99629.72;;;10.08;63.17
49423;BME280;36998;51.974;20.150;2022-12-24T14:17:00;99627.34;;;10.14;62.90
49423;BME280;36998;51.974;20.150;2022-12-24T14:19:47;99628.69;;;10.18;63.05
49423;BME280;36998;51.974;20.150;2022-12-24T14:22:43;99631.19;;;10.19;62.67
49423;BME280;36998;51.974;20.150;2022-12-24T14:25:15;99630.22;;;10.12;62.85
49423;BME280;36998;51.974;20.150;2022-12-24T14:27:44;99633.44;;;10.07;63.15
49423;BME280;36998;51.974;20.150;2022-12-24T14:30:27;99640.69;;;10.07;63.28
49423;BME280;36998;51.974;20.150;2022-12-24T14:32:53;99644.94;;;10.01;62.93
49423;BME280;36998;51.974;20.150;2022-12-24T14:35:42;99646.31;;;9.97;63.24
49423;BME280;36998;51.974;20.150;2022-12-24T14:38:13;99651.03;;;9.95;63.34
49423;BME280;36998;51.974;20.150;2022-12-24T14:40:52;99659.13;;;9.87;63.56
49423;BME280;36998;51.974;20.150;2022-12-24T14:43:29;99662.19;;;9.84;63.44
49423;BME280;36998;51.974;20.150;2022-12-24T14:49:06;99673.69;;;9.78;63.50
49423;BME280;36998;51.974;20.150;2022-12-24T14:59:57;99690.88;;;9.77;63.50
49423;BME280;36998;51.974;20.150;2022-12-24T15:02:46;99697.09;;;9.85;63.76